createdAt,value
2023-01-21T00:01:20.195Z,101891.81
2023-01-21T00:03:48.704Z,101896.25
2023-01-21T00:06:18.211Z,101899.81
2023-01-21T00:08:46.281Z,101898.09
2023-01-21T00:11:16.793Z,101900.72
2023-01-21T00:13:45.613Z,101915.69
2023-01-21T00:16:14.740Z,101911.38
2023-01-21T00:18:43.363Z,101923.66
2023-01-21T00:21:11.788Z,101918.47
2023-01-21T00:23:41.531Z,101923.75
2023-01-21T00:26:12.786Z,101930.84
2023-01-21T00:28:43.720Z,101935.06
2023-01-21T00:31:13.816Z,101938.59
2023-01-21T00:33:42.018Z,101942.25
2023-01-21T00:36:13.761Z,101951.84
2023-01-21T00:38:43.617Z,101948.91
2023-01-21T00:41:14.266Z,101955.25
2023-01-21T00:43:43.513Z,101950.81
2023-01-21T00:46:14.697Z,101946.53
2023-01-21T00:48:42.831Z,101948.22
2023-01-21T00:51:11.905Z,101952.56
2023-01-21T00:53:42.815Z,101948.94
2023-01-21T00:56:14.526Z,101956.03
2023-01-21T00:58:44.261Z,101954.41
2023-01-21T01:01:15.296Z,101956.84
2023-01-21T01:03:44.674Z,101965.00
2023-01-21T01:06:15.659Z,101971.13
2023-01-21T01:08:46.683Z,101972.16
2023-01-21T01:11:15.975Z,101978.25
2023-01-21T01:13:44.749Z,101978.25
2023-01-21T01:16:18.860Z,101981.09
2023-01-21T01:18:47.737Z,101994.28
2023-01-21T01:21:18.603Z,101996.88
2023-01-21T01:23:49.137Z,102001.44
2023-01-21T01:26:19.321Z,102005.75
2023-01-21T01:28:47.887Z,102006.59
2023-01-21T01:31:18.449Z,102017.09
2023-01-21T01:33:47.087Z,102014.50
2023-01-21T01:36:18.746Z,102016.25
2023-01-21T01:38:48.187Z,102030.91
2023-01-21T01:41:19.892Z,102025.00
2023-01-21T01:44:01.294Z,102036.34
2023-01-21T01:46:31.951Z,102039.03
2023-01-21T01:49:08.961Z,102045.03
2023-01-21T01:51:47.399Z,102045.22
2023-01-21T01:54:24.177Z,102050.38
2023-01-21T01:56:57.899Z,102054.78
2023-01-21T01:59:27.590Z,102056.56
2023-01-21T02:01:56.941Z,102060.69
2023-01-21T02:04:32.939Z,102057.22
2023-01-21T02:07:02.076Z,102072.72
2023-01-21T02:09:31.537Z,102070.91
2023-01-21T02:12:01.919Z,102079.47
2023-01-21T02:14:31.834Z,102078.66
2023-01-21T02:17:21.480Z,102081.28
2023-01-21T02:20:41.214Z,102084.66
2023-01-21T02:23:20.632Z,102086.25
2023-01-21T02:26:42.609Z,102094.19
2023-01-21T02:29:59.021Z,102095.16
2023-01-21T02:33:14.244Z,102101.09
2023-01-21T02:35:49.081Z,102100.19
2023-01-21T02:38:30.885Z,102105.53
2023-01-21T02:41:12.814Z,102101.31
2023-01-21T02:43:51.251Z,102108.16
2023-01-21T02:46:28.646Z,102108.94
2023-01-21T02:49:04.793Z,102104.72
2023-01-21T02:51:32.844Z,102105.53
2023-01-21T02:54:00.875Z,102107.25
2023-01-21T02:56:29.364Z,102113.25
2023-01-21T02:59:02.735Z,102116.59
2023-01-21T03:01:46.984Z,102112.13
2023-01-21T03:04:42.175Z,102115.50
2023-01-21T03:07:22.327Z,102112.78
2023-01-21T03:09:50.567Z,102123.25
2023-01-21T03:12:39.774Z,102118.78
2023-01-21T03:15:31.712Z,102121.31
2023-01-21T03:18:08.079Z,102126.47
2023-01-21T03:20:45.106Z,102134.34
2023-01-21T03:23:19.557Z,102133.53
2023-01-21T03:25:51.415Z,102131.00
2023-01-21T03:28:27.350Z,102129.19
2023-01-21T03:31:03.228Z,102128.22
2023-01-21T03:33:37.527Z,102136.06
2023-01-21T03:36:19.247Z,102128.22
2023-01-21T03:38:54.509Z,102128.13
2023-01-21T03:41:32.006Z,102123.72
2023-01-21T03:44:00.453Z,102127.19
2023-01-21T03:46:37.960Z,102127.97
2023-01-21T03:49:14.141Z,102118.56
2023-01-21T03:51:51.547Z,102126.41
2023-01-21T03:54:19.683Z,102123.72
2023-01-21T03:56:47.702Z,102126.47
2023-01-21T03:59:15.898Z,102131.59
2023-01-21T04:01:44.142Z,102132.53
2023-01-21T04:04:12.273Z,102133.34
2023-01-21T04:06:40.434Z,102126.22
2023-01-21T04:09:12.598Z,102130.50
2023-01-21T04:11:40.689Z,102132.25
2023-01-21T04:14:08.966Z,102132.25
2023-01-21T04:16:37.256Z,102136.50
2023-01-21T04:19:05.600Z,102138.25
2023-01-21T04:21:33.706Z,102135.84
2023-01-21T04:24:01.935Z,102146.25
2023-01-21T04:26:31.342Z,102146.22
2023-01-21T04:28:59.378Z,102146.97
2023-01-21T04:31:27.427Z,102135.53
2023-01-21T04:33:55.531Z,102141.72
2023-01-21T04:36:23.610Z,102159.19
2023-01-21T04:38:51.649Z,102147.78
2023-01-21T04:41:19.678Z,102149.50
2023-01-21T04:43:49.094Z,102163.44
2023-01-21T04:46:17.770Z,102164.38
2023-01-21T04:48:45.814Z,102151.22
2023-01-21T04:51:13.879Z,102164.31
2023-01-21T04:53:41.919Z,102160.13
2023-01-21T04:56:10.041Z,102161.81
2023-01-21T04:58:38.133Z,102168.69
2023-01-21T05:01:07.843Z,102167.06
2023-01-21T05:03:36.030Z,102169.91
2023-01-21T05:06:04.201Z,102167.25
2023-01-21T05:08:32.264Z,102172.38
2023-01-21T05:11:00.340Z,102175.78
2023-01-21T05:13:28.380Z,102171.38
2023-01-21T05:15:57.253Z,102165.38
2023-01-21T05:18:26.708Z,102175.88
2023-01-21T05:20:55.575Z,102182.75
2023-01-21T05:23:23.632Z,102174.91
2023-01-21T05:25:51.756Z,102177.50
2023-01-21T05:28:19.795Z,102183.59
2023-01-21T05:30:47.921Z,102193.16
2023-01-21T05:33:16.174Z,102192.19
2023-01-21T05:35:45.600Z,102195.69
2023-01-21T05:38:13.667Z,102188.72
2023-01-21T05:40:41.679Z,102192.19
2023-01-21T05:43:09.715Z,102196.59
2023-01-21T05:45:37.750Z,102205.47
2023-01-21T05:48:06.980Z,102202.94
2023-01-21T05:50:35.035Z,102201.94
2023-01-21T05:53:04.685Z,102204.56
2023-01-21T05:55:32.690Z,102208.00
2023-01-21T05:58:01.271Z,102208.81
2023-01-21T06:00:29.315Z,102209.69
2023-01-21T06:02:57.383Z,102207.00
2023-01-21T06:05:25.424Z,102211.38
2023-01-21T06:07:53.776Z,102212.31
2023-01-21T06:10:23.382Z,102222.66
2023-01-21T06:12:52.784Z,102223.53
2023-01-21T06:15:21.237Z,102231.47
2023-01-21T06:17:49.296Z,102223.63
2023-01-21T06:20:17.920Z,102233.16
2023-01-21T06:22:46.344Z,102233.13
2023-01-21T06:25:14.565Z,102240.13
2023-01-21T06:27:43.959Z,102249.66
2023-01-21T06:30:12.759Z,102257.53
2023-01-21T06:32:41.072Z,102262.81
2023-01-21T06:35:10.108Z,102277.75
2023-01-21T06:37:38.486Z,102280.38
2023-01-21T06:40:08.745Z,102287.34
2023-01-21T06:42:36.771Z,102290.88
2023-01-21T06:45:07.783Z,102291.81
2023-01-21T06:47:35.821Z,102291.75
2023-01-21T06:50:03.962Z,102301.41
2023-01-21T06:52:31.967Z,102303.22
2023-01-21T06:55:00.333Z,102299.69
2023-01-21T06:57:28.405Z,102308.38
2023-01-21T06:59:56.421Z,102311.91
2023-01-21T07:02:25.883Z,102313.72
2023-01-21T07:04:54.126Z,102313.69
2023-01-21T07:07:22.176Z,102319.00
2023-01-21T07:09:50.262Z,102319.88
2023-01-21T07:12:18.364Z,102320.75
2023-01-21T07:14:46.397Z,102324.16
2023-01-21T07:17:14.496Z,102320.56
2023-01-21T07:19:43.918Z,102330.13
2023-01-21T07:22:11.971Z,102322.28
2023-01-21T07:24:40.241Z,102322.25
2023-01-21T07:27:08.479Z,102332.66
2023-01-21T07:29:36.527Z,102330.91
2023-01-21T07:32:05.050Z,102335.22
2023-01-21T07:34:33.133Z,102338.69
2023-01-21T07:37:02.544Z,102342.19
2023-01-21T07:39:30.585Z,102336.81
2023-01-21T07:41:58.634Z,102337.69
2023-01-21T07:44:29.684Z,102346.50
2023-01-21T07:46:58.025Z,102345.63
2023-01-21T07:49:26.073Z,102351.66
2023-01-21T07:51:58.426Z,102349.00
2023-01-21T07:54:28.060Z,102350.78
2023-01-21T07:56:56.116Z,102351.59
2023-01-21T07:59:24.158Z,102361.19
2023-01-21T08:01:52.395Z,102363.88
2023-01-21T08:04:20.824Z,102367.38
2023-01-21T08:06:51.002Z,102374.31
2023-01-21T08:09:19.021Z,102371.69
2023-01-21T08:11:48.393Z,102370.00
2023-01-21T08:14:16.769Z,102372.56
2023-01-21T08:16:44.929Z,102376.06
2023-01-21T08:19:14.010Z,102378.78
2023-01-21T08:21:42.192Z,102382.22
2023-01-21T08:24:11.561Z,102386.66
2023-01-21T08:26:39.730Z,102389.25
2023-01-21T08:29:09.515Z,102392.78
2023-01-21T08:31:37.590Z,102400.69
2023-01-21T08:34:05.726Z,102401.47
2023-01-21T08:36:33.985Z,102403.22
2023-01-21T08:39:03.869Z,102400.53
2023-01-21T08:41:32.293Z,102396.09
2023-01-21T08:44:00.391Z,102404.78
2023-01-21T08:46:29.827Z,102398.63
2023-01-21T08:48:57.848Z,102402.06
2023-01-21T08:51:25.931Z,102418.81
2023-01-21T08:53:54.408Z,102422.41
2023-01-21T08:56:22.454Z,102420.63
2023-01-21T08:58:56.710Z,102409.25
2023-01-21T09:01:26.154Z,102408.25
2023-01-21T09:04:00.599Z,102414.31
2023-01-21T09:06:30.714Z,102409.84
2023-01-21T09:08:59.135Z,102426.47
2023-01-21T09:11:30.266Z,102424.63
2023-01-21T09:14:03.174Z,102431.56
2023-01-21T09:16:32.453Z,102418.34
2023-01-21T09:19:02.693Z,102424.44
2023-01-21T09:21:31.097Z,102420.88
2023-01-21T09:23:59.171Z,102419.94
2023-01-21T09:26:27.561Z,102417.28
2023-01-21T09:28:59.915Z,102417.38
2023-01-21T09:31:30.729Z,102419.16
2023-01-21T09:34:03.586Z,102420.81
2023-01-21T09:36:34.230Z,102421.75
2023-01-21T09:39:02.816Z,102433.84
2023-01-21T09:41:38.115Z,102423.41
2023-01-21T09:44:17.626Z,102428.56
2023-01-21T09:46:54.757Z,102425.88
2023-01-21T09:49:28.958Z,102432.09
2023-01-21T09:52:09.934Z,102437.31
2023-01-21T09:54:40.057Z,102436.38
2023-01-21T09:58:04.580Z,102447.84
2023-01-21T10:00:41.374Z,102440.75
2023-01-21T10:03:25.710Z,102436.31
2023-01-21T10:06:13.363Z,102445.00
2023-01-21T10:09:01.063Z,102440.63
2023-01-21T10:11:48.203Z,102445.75
2023-01-21T10:14:48.657Z,102441.28
2023-01-21T10:17:28.142Z,102449.13
2023-01-21T10:20:07.295Z,102446.34
2023-01-21T10:22:37.064Z,102444.53
2023-01-21T10:25:19.929Z,102447.88
2023-01-21T10:27:48.413Z,102447.75
2023-01-21T10:30:25.755Z,102444.22
2023-01-21T10:32:57.366Z,102437.13
2023-01-21T10:35:45.694Z,102438.97
2023-01-21T10:38:28.126Z,102448.41
2023-01-21T10:41:05.480Z,102437.91
2023-01-21T10:43:45.069Z,102441.41
2023-01-21T10:46:24.495Z,102434.31
2023-01-21T10:49:02.709Z,102435.22
2023-01-21T10:51:41.494Z,102430.84
2023-01-21T10:54:22.844Z,102429.88
2023-01-21T10:57:01.623Z,102433.22
2023-01-21T10:59:35.093Z,102425.97
2023-01-21T11:02:22.081Z,102434.63
2023-01-21T11:04:50.599Z,102427.41
2023-01-21T11:07:22.345Z,102430.88
2023-01-21T11:09:53.664Z,102438.72
2023-01-21T11:12:24.811Z,102432.66
2023-01-21T11:14:58.569Z,102433.50
2023-01-21T11:17:34.078Z,102445.81
2023-01-21T11:20:07.740Z,102443.22
2023-01-21T11:22:45.545Z,102437.94
2023-01-21T11:25:29.369Z,102439.56
2023-01-21T11:27:57.373Z,102438.69
2023-01-21T11:30:49.662Z,102443.00
2023-01-21T11:33:28.038Z,102436.03
2023-01-21T11:35:58.335Z,102443.00
2023-01-21T11:38:34.795Z,102450.09
2023-01-21T11:41:18.363Z,102439.50
2023-01-21T11:43:49.654Z,102440.34
2023-01-21T11:46:30.514Z,102441.09
2023-01-21T11:49:22.975Z,102439.31
2023-01-21T11:51:52.294Z,102439.22
2023-01-21T11:54:23.581Z,102437.38
2023-01-21T11:56:59.804Z,102441.66
2023-01-21T11:59:34.368Z,102440.75
2023-01-21T12:02:13.559Z,102441.59
2023-01-21T12:04:47.446Z,102432.75
2023-01-21T12:07:22.458Z,102434.38
2023-01-21T12:09:56.696Z,102428.09
2023-01-21T12:12:45.625Z,102438.50
2023-01-21T12:15:33.680Z,102434.88
2023-01-21T12:18:23.040Z,102421.63
2023-01-21T12:21:05.056Z,102421.25
2023-01-21T12:23:57.769Z,102416.84
2023-01-21T12:26:41.207Z,102421.19
2023-01-21T12:29:32.294Z,102414.16
2023-01-21T12:32:08.708Z,102416.78
2023-01-21T12:34:45.000Z,102416.34
2023-01-21T12:37:22.152Z,102413.19
2023-01-21T12:39:55.208Z,102412.75
2023-01-21T12:42:34.024Z,102409.69
2023-01-21T12:45:13.100Z,102405.06
2023-01-21T12:47:47.539Z,102397.56
2023-01-21T12:50:25.360Z,102391.69
2023-01-21T12:53:06.696Z,102390.53
2023-01-21T12:56:03.556Z,102386.16
2023-01-21T12:58:37.420Z,102384.38
2023-01-21T13:01:15.032Z,102378.53
2023-01-21T13:04:00.631Z,102385.78
2023-01-21T13:06:53.105Z,102383.22
2023-01-21T13:09:34.727Z,102391.25
2023-01-21T13:12:13.760Z,102390.34
2023-01-21T13:14:48.444Z,102388.56
2023-01-21T13:17:21.463Z,102376.44
2023-01-21T13:19:50.308Z,102386.16
2023-01-21T13:22:36.108Z,102380.03
2023-01-21T13:25:23.593Z,102381.81
2023-01-21T13:28:01.388Z,102390.63
2023-01-21T13:30:40.697Z,102390.72
2023-01-21T13:33:32.097Z,102395.97
2023-01-21T13:36:24.273Z,102393.41
2023-01-21T13:39:04.602Z,102400.41
2023-01-21T13:41:54.881Z,102395.16
2023-01-21T13:45:03.420Z,102382.84
2023-01-21T13:47:57.522Z,102388.13
2023-01-21T13:50:46.371Z,102388.97
2023-01-21T13:53:42.765Z,102396.09
2023-01-21T13:56:35.156Z,102396.94
2023-01-21T13:59:10.233Z,102398.66
2023-01-21T14:01:46.594Z,102407.50
2023-01-21T14:04:22.405Z,102395.25
2023-01-21T14:06:58.690Z,102393.41
2023-01-21T14:09:37.167Z,102389.84
2023-01-21T14:12:14.972Z,102391.53
2023-01-21T14:15:23.256Z,102398.66
2023-01-21T14:18:22.428Z,102396.81
2023-01-21T14:21:35.807Z,102408.34
2023-01-21T14:24:41.560Z,102404.94
2023-01-21T14:27:24.071Z,102401.47
2023-01-21T14:29:58.811Z,102402.28
2023-01-21T14:32:38.649Z,102399.66
2023-01-21T14:35:20.630Z,102401.53
2023-01-21T14:37:57.969Z,102407.72
2023-01-21T14:40:33.190Z,102401.59
2023-01-21T14:43:01.659Z,102397.31
2023-01-21T14:45:55.615Z,102397.44
2023-01-21T14:48:33.480Z,102395.69
2023-01-21T14:51:13.629Z,102395.56
2023-01-21T14:53:48.874Z,102403.50
2023-01-21T14:56:24.272Z,102400.97
2023-01-21T14:58:57.114Z,102397.44
2023-01-21T15:01:44.686Z,102411.66
2023-01-21T15:04:29.425Z,102407.34
2023-01-21T15:07:02.482Z,102409.00
2023-01-21T15:09:35.905Z,102406.38
2023-01-21T15:12:14.813Z,102404.63
2023-01-21T15:14:45.542Z,102397.56
2023-01-21T15:18:03.198Z,102394.09
2023-01-21T15:20:51.089Z,102401.09
2023-01-21T15:23:35.911Z,102398.41
2023-01-21T15:26:33.061Z,102391.56
2023-01-21T15:29:35.338Z,102397.66
2023-01-21T15:32:31.495Z,102394.91
2023-01-21T15:35:03.333Z,102390.78
2023-01-21T15:37:37.567Z,102396.06
2023-01-21T15:40:20.012Z,102392.56
2023-01-21T15:43:00.209Z,102380.28
2023-01-21T15:45:42.380Z,102383.75
2023-01-21T15:48:52.898Z,102382.91
2023-01-21T15:51:48.595Z,102393.66
2023-01-21T15:54:33.445Z,102382.28
2023-01-21T15:57:29.507Z,102384.06
2023-01-21T16:00:26.167Z,102388.47
2023-01-21T16:03:04.673Z,102391.13
2023-01-21T16:05:47.374Z,102389.41
2023-01-21T16:08:44.695Z,102382.41
2023-01-21T16:11:56.941Z,102388.59
2023-01-21T16:14:52.305Z,102392.22
2023-01-21T16:17:31.243Z,102395.00
2023-01-21T16:20:03.973Z,102394.06
2023-01-21T16:22:37.605Z,102400.28
2023-01-21T16:25:11.722Z,102393.19
2023-01-21T16:27:39.891Z,102393.31
2023-01-21T16:30:15.079Z,102400.41
2023-01-21T16:32:43.326Z,102397.72
2023-01-21T16:35:12.801Z,102398.50
2023-01-21T16:37:43.911Z,102393.19
2023-01-21T16:40:30.457Z,102394.84
2023-01-21T16:43:27.499Z,102400.09
2023-01-21T16:46:02.478Z,102396.63
2023-01-21T16:48:34.261Z,102398.41
2023-01-21T16:51:05.167Z,102402.72
2023-01-21T16:53:33.346Z,102405.25
2023-01-21T16:56:01.418Z,102409.75
2023-01-21T16:58:32.874Z,102406.38
2023-01-21T17:01:10.694Z,102401.91
2023-01-21T17:03:39.549Z,102401.00
2023-01-21T17:06:15.445Z,102403.50
2023-01-21T17:08:51.755Z,102406.09
2023-01-21T17:11:22.134Z,102411.28
2023-01-21T17:13:51.454Z,102403.38
2023-01-21T17:16:26.652Z,102391.84
2023-01-21T17:18:59.196Z,102393.59
2023-01-21T17:21:44.648Z,102397.09
2023-01-21T17:24:22.311Z,102389.31
2023-01-21T17:26:55.094Z,102393.81
2023-01-21T17:29:28.210Z,102391.84
2023-01-21T17:31:58.621Z,102395.47
2023-01-21T17:34:28.628Z,102400.75
2023-01-21T17:36:58.872Z,102398.13
2023-01-21T17:40:00.690Z,102395.47
2023-01-21T17:42:40.505Z,102398.00
2023-01-21T17:45:23.112Z,102396.38
2023-01-21T17:48:08.613Z,102399.97
2023-01-21T17:50:37.745Z,102398.13
2023-01-21T17:53:18.632Z,102399.84
2023-01-21T17:56:00.362Z,102391.03
2023-01-21T17:58:49.243Z,102398.22
2023-01-21T18:01:19.516Z,102395.75
2023-01-21T18:03:47.837Z,102395.75
2023-01-21T18:06:25.352Z,102393.09
2023-01-21T18:08:56.303Z,102403.28
2023-01-21T18:11:25.002Z,102399.03
2023-01-21T18:13:53.180Z,102394.69
2023-01-21T18:16:21.350Z,102401.66
2023-01-21T18:18:50.417Z,102398.22
2023-01-21T18:21:21.641Z,102393.94
2023-01-21T18:23:50.574Z,102396.63
2023-01-21T18:26:28.332Z,102395.84
2023-01-21T18:28:56.565Z,102403.59
2023-01-21T18:31:24.897Z,102398.34
2023-01-21T18:33:54.772Z,102396.63
2023-01-21T18:36:22.953Z,102399.25
2023-01-21T18:38:50.992Z,102401.91
2023-01-21T18:41:20.604Z,102398.47
2023-01-21T18:43:48.720Z,102393.19
2023-01-21T18:46:19.595Z,102388.03
2023-01-21T18:48:48.422Z,102391.47
2023-01-21T18:51:16.662Z,102387.75
2023-01-21T18:53:44.810Z,102392.19
2023-01-21T18:56:15.363Z,102382.53
2023-01-21T18:58:44.777Z,102387.81
2023-01-21T19:01:23.195Z,102376.47
2023-01-21T19:03:54.595Z,102370.25
2023-01-21T19:06:24.804Z,102379.00
2023-01-21T19:08:54.857Z,102383.44
2023-01-21T19:11:22.983Z,102376.53
2023-01-21T19:13:52.705Z,102382.41
2023-01-21T19:16:22.563Z,102378.88
2023-01-21T19:18:50.730Z,102370.97
2023-01-21T19:21:18.833Z,102369.13
2023-01-21T19:23:47.199Z,102374.47
2023-01-21T19:26:15.544Z,102365.69
2023-01-21T19:28:43.860Z,102371.88
2023-01-21T19:31:16.371Z,102356.13
2023-01-21T19:33:45.668Z,102363.91
2023-01-21T19:36:17.445Z,102373.47
2023-01-21T19:38:54.197Z,102359.59
2023-01-21T19:41:22.749Z,102379.75
2023-01-21T19:43:51.262Z,102367.38
2023-01-21T19:46:23.045Z,102373.59
2023-01-21T19:48:53.487Z,102377.09
2023-01-21T19:51:21.700Z,102366.59
2023-01-21T19:53:49.820Z,102376.25
2023-01-21T19:56:24.510Z,102385.13
2023-01-21T19:58:53.252Z,102384.25
2023-01-21T20:01:22.738Z,102402.63
2023-01-21T20:03:59.581Z,102396.38
2023-01-21T20:06:33.813Z,102395.69
2023-01-21T20:09:02.169Z,102400.94
2023-01-21T20:11:30.318Z,102395.69
2023-01-21T20:13:58.497Z,102394.81
2023-01-21T20:16:28.281Z,102385.06
2023-01-21T20:18:56.458Z,102376.25
2023-01-21T20:21:24.631Z,102364.88
2023-01-21T20:23:52.739Z,102350.78
2023-01-21T20:26:26.001Z,102341.97
2023-01-21T20:28:54.557Z,102340.25
2023-01-21T20:31:22.829Z,102342.84
2023-01-21T20:33:52.393Z,102352.50
2023-01-21T20:36:24.780Z,102349.69
2023-01-21T20:38:54.243Z,102364.66
2023-01-21T20:41:22.919Z,102350.53
2023-01-21T20:43:51.148Z,102354.91
2023-01-21T20:46:23.352Z,102357.53
2023-01-21T20:48:53.044Z,102363.72
2023-01-21T20:51:22.016Z,102387.56
2023-01-21T20:53:50.109Z,102385.00
2023-01-21T20:56:22.999Z,102386.81
2023-01-21T20:58:51.381Z,102385.97
2023-01-21T21:01:22.482Z,102374.50
2023-01-21T21:03:53.152Z,102376.03
2023-01-21T21:06:24.018Z,102371.75
2023-01-21T21:08:52.777Z,102356.84
2023-01-21T21:11:21.123Z,102362.19
2023-01-21T21:13:52.210Z,102347.28
2023-01-21T21:16:24.295Z,102347.13
2023-01-21T21:18:53.781Z,102356.84
2023-01-21T21:21:23.892Z,102358.66
2023-01-21T21:23:52.859Z,102364.75
2023-01-21T21:26:24.278Z,102362.13
2023-01-21T21:28:55.216Z,102363.97
2023-01-21T21:31:25.473Z,102364.75
2023-01-21T21:33:54.919Z,102359.44
2023-01-21T21:36:24.930Z,102347.91
2023-01-21T21:38:55.456Z,102345.38
2023-01-21T21:41:43.955Z,102342.72
2023-01-21T21:44:13.638Z,102340.13
2023-01-21T21:46:59.766Z,102333.25
2023-01-21T21:49:30.217Z,102343.13
2023-01-21T21:52:00.024Z,102330.19
2023-01-21T21:54:28.195Z,102327.81
2023-01-21T21:56:56.978Z,102326.34
2023-01-21T21:59:25.407Z,102309.03
2023-01-21T22:01:53.471Z,102323.19
2023-01-21T22:04:22.977Z,102322.38
2023-01-21T22:06:52.628Z,102331.22
2023-01-21T22:09:20.840Z,102328.50
2023-01-21T22:11:48.869Z,102327.94
2023-01-21T22:14:17.945Z,102325.34
2023-01-21T22:16:46.193Z,102343.56
2023-01-21T22:19:14.307Z,102335.09
2023-01-21T22:21:42.349Z,102341.94
2023-01-21T22:24:12.479Z,102340.38
2023-01-21T22:26:41.259Z,102343.00
2023-01-21T22:29:09.395Z,102349.19
2023-01-21T22:31:37.743Z,102350.16
2023-01-21T22:34:06.180Z,102353.69
2023-01-21T22:36:34.381Z,102347.44
2023-01-21T22:39:02.452Z,102349.19
2023-01-21T22:41:32.349Z,102348.44
2023-01-21T22:44:00.443Z,102341.38
2023-01-21T22:46:31.233Z,102346.47
2023-01-21T22:48:59.414Z,102348.16
2023-01-21T22:51:28.367Z,102341.03
2023-01-21T22:53:57.500Z,102336.56
2023-01-21T22:56:51.627Z,102343.56
2023-01-21T22:59:16.175Z,102335.84
2023-01-21T23:01:44.440Z,102339.31
2023-01-21T23:04:12.611Z,102343.69
2023-01-21T23:06:40.732Z,102335.16
2023-01-21T23:09:11.286Z,102337.75
2023-01-21T23:11:41.486Z,102333.31
2023-01-21T23:14:10.510Z,102334.25
2023-01-21T23:16:40.765Z,102339.38
2023-01-21T23:19:08.880Z,102337.75
2023-01-21T23:21:38.259Z,102333.38
2023-01-21T23:24:07.570Z,102338.75
2023-01-21T23:26:35.624Z,102334.34
2023-01-21T23:29:04.258Z,102334.41
2023-01-21T23:31:32.444Z,102333.81
2023-01-21T23:34:03.236Z,102326.84
2023-01-21T23:36:31.291Z,102337.25
2023-01-21T23:38:59.394Z,102334.66
2023-01-21T23:41:27.738Z,102330.34
2023-01-21T23:43:59.616Z,102323.28
2023-01-21T23:46:27.841Z,102328.66
2023-01-21T23:48:56.020Z,102327.91
2023-01-21T23:51:25.456Z,102324.47
2023-01-21T23:53:53.526Z,102324.41
2023-01-21T23:56:24.394Z,102325.34
2023-01-21T23:58:53.086Z,102321.88
